Alafaya, FL (32816)

7:34 PM EDT on April 18, 2015 (GMT -0400)
UCF Area / WUCF-FM | | Change Station
CLOSE
Current Station
Personal Weather Station
Location: Orlando, FL
Elevation: 85 ft
Nearby Weather Stations

Elev 85 ft 28.60 °N, 81.20 °W | Updated 1 second ago

Partly Cloudy
Partly Cloudy
84.4 °F
Feels Like 88 °F
N
4.3
Wind Variable Wind from WSW
Gusts 8.6 mph

Today
High -- | Low -- °F
--% Chance of Precip.
Yesterday
High -- | Low -- °F
Precip. -- in
6:56 AM 7:52 PM
New Moon, 0% visible
Pressure 29.92 in
Visibility 10.0 miles
Clouds Clear
Heat Index 88 °F
Dew Point 69 °F
Humidity 59%
Rainfall 0.00 in
Snow Depth Not available.
UV 1 out of 12
Pollen 8.90 out of 12
Air Quality Not available.
Flu Activity Local Activity
METAR KORL 182253Z 30008KT 10SM CLR 29/20 A2992 RMK AO2 SLP132 T02940200

More Conditions Fewer Conditions

Pressure 29.92 in
Visibility 10.0 miles
Clouds Clear
Heat Index 88 °F
Dew Point 69 °F
Humidity 59%
Rainfall 0.00 in
Snow Depth Not available.
UV 1 out of 12
Pollen 8.90 out of 12
Air Quality Not available.
Flu Activity Local Activity
METAR KORL 182253Z 30008KT 10SM CLR 29/20 A2992 RMK AO2 SLP132 T02940200

More Conditions Fewer Conditions

Nowcast | as of 4:40 PM EDT on April 18, 2015

record heat with a few showers developing through dusk... the thermometer has soared to around 90 degrees over most inland areas this afternoon with the only relief in the form of a slow inland moving sea breeze along the immediate coast. A few showers and storms will develop and track toward the east through nightfall. Affected areas will see a brief downpour and perhaps a lightning strike. Additional details...including graphics are available online at: http://www.Srh.NOAA.Gov/mlb/blog.Php

×

10-Day Weather Forecast

Almanac

Astronomy

Apr. 18, 2015 Rise Set
Actual Time
Civil Twilight
Nautical Twilight
Astronomical Twilight
Moon
Length of Visible Light
Length of Day
Tomorrow will be .
, % of the Moon is Illuminated

Today's Extremes

State Highs State Lows

Community

WunderPhotos

Upload Photos

1,814,576 photos uploaded!

WunderBlogs® & News

Nearby

Air Quality

  Air Quality AQ Index Pollutant
Not available.

Snow Depth

Station Depth Elevation

Earthquake Activity

City Distance Mag. Time & Date
Minimum magnitude displayed is 2.5.

Coastal Water Temperatures

Place Temperature

Stations

Nearby Weather Stations

Station Location Temp. Windchill Dew Point Humidity Wind Precip. Elev Updated Type